FDX9369 YSSY-KMEM
Flight info
| Callsign | FDX9369 |
|---|---|
| Flight time | N/A |
| Altitude | 29000 |
| Route | NOBAR B450 TEKEP DCT 27S70 DCT DOLSI B450 DUNAK/N0500F310 B450 DODUX DCT 14W70 DCT 07W60 DCT 01N50/N0492F330 DCT 09N40 DCT 16N30/N0482F350 DCT 22N20 DCT 27N110W DCT PELNI/N0473F370 UJ2 CUU DCT JCT DCT TXK HOBRK4 |
| Aircraft | B77L/H-SDE1E2E3FGHIJ2J3J4J5M1RWXY/LB1D1 |
Departure
| Time | N/A |
|---|---|
| Airport | Sydney Kingsford Smith International Airport (YSSY) |
Arrival
| Time | 2026-05-04 13:53 |
|---|---|
| Airport | Memphis International Airport (KMEM) |
| Time | Latitude | Longitude | Altitude | Speed | Heading |
|---|---|---|---|---|---|
| 2026-05-04 12:57 | 32.74143 | -95.68303 | 37029 ft | 510 kts | 46° |
| 2026-05-04 12:57 | 32.77107 | -95.62258 | 37062 ft | 510 kts | 47° |
| 2026-05-04 12:58 | 32.81259 | -95.53773 | 37037 ft | 511 kts | 47° |
| 2026-05-04 12:58 | 32.84831 | -95.46454 | 37018 ft | 511 kts | 47° |
| 2026-05-04 12:59 | 32.87814 | -95.40329 | 37036 ft | 511 kts | 47° |
| 2026-05-04 12:59 | 32.91354 | -95.33049 | 37046 ft | 511 kts | 47° |
| 2026-05-04 13:00 | 32.94844 | -95.25686 | 36991 ft | 511 kts | 48° |
| 2026-05-04 13:00 | 32.98427 | -95.18399 | 37012 ft | 510 kts | 48° |
| 2026-05-04 13:01 | 33.01980 | -95.11119 | 37027 ft | 511 kts | 48° |
| 2026-05-04 13:01 | 33.05533 | -95.03767 | 37041 ft | 512 kts | 48° |
| 2026-05-04 13:02 | 33.09017 | -94.96524 | 37043 ft | 514 kts | 49° |
| 2026-05-04 13:02 | 33.12547 | -94.89173 | 37044 ft | 515 kts | 50° |
| 2026-05-04 13:03 | 33.16106 | -94.81747 | 37033 ft | 515 kts | 50° |
| 2026-05-04 13:03 | 33.19656 | -94.74328 | 37027 ft | 515 kts | 50° |
| 2026-05-04 13:04 | 33.23203 | -94.66900 | 37009 ft | 515 kts | 50° |
| 2026-05-04 13:04 | 33.26722 | -94.59514 | 37013 ft | 514 kts | 50° |
| 2026-05-04 13:05 | 33.30215 | -94.52173 | 37010 ft | 514 kts | 50° |
| 2026-05-04 13:05 | 33.33743 | -94.44738 | 37011 ft | 514 kts | 50° |
| 2026-05-04 13:06 | 33.37263 | -94.37309 | 37011 ft | 513 kts | 50° |
| 2026-05-04 13:06 | 33.40779 | -94.29869 | 37025 ft | 513 kts | 50° |
| 2026-05-04 13:07 | 33.44289 | -94.22427 | 37032 ft | 514 kts | 50° |
| 2026-05-04 13:07 | 33.47739 | -94.15100 | 37044 ft | 514 kts | 51° |
| 2026-05-04 13:08 | 33.50947 | -94.07357 | 37054 ft | 526 kts | 60° |
| 2026-05-04 13:08 | 33.53013 | -93.99023 | 37050 ft | 539 kts | 70° |
| 2026-05-04 13:09 | 33.54514 | -93.90207 | 37047 ft | 541 kts | 71° |
| 2026-05-04 13:09 | 33.55982 | -93.81345 | 37037 ft | 541 kts | 71° |
| 2026-05-04 13:10 | 33.57482 | -93.72569 | 37023 ft | 542 kts | 71° |
| 2026-05-04 13:10 | 33.59021 | -93.63716 | 37023 ft | 542 kts | 71° |
| 2026-05-04 13:11 | 33.60558 | -93.54857 | 37021 ft | 542 kts | 71° |
| 2026-05-04 13:11 | 33.62084 | -93.46004 | 37024 ft | 542 kts | 71° |
| 2026-05-04 13:12 | 33.63603 | -93.37140 | 37034 ft | 542 kts | 71° |
| 2026-05-04 13:12 | 33.65117 | -93.28258 | 37019 ft | 544 kts | 71° |
| 2026-05-04 13:13 | 33.66628 | -93.19358 | 37027 ft | 545 kts | 71° |
| 2026-05-04 13:13 | 33.68135 | -93.10438 | 37029 ft | 545 kts | 71° |
| 2026-05-04 13:14 | 33.69627 | -93.01572 | 37032 ft | 546 kts | 71° |
| 2026-05-04 13:14 | 33.71094 | -92.92808 | 37032 ft | 547 kts | 71° |
| 2026-05-04 13:15 | 33.72586 | -92.83855 | 37030 ft | 547 kts | 71° |
| 2026-05-04 13:15 | 33.74071 | -92.74898 | 37053 ft | 547 kts | 71° |
| 2026-05-04 13:16 | 33.75542 | -92.65988 | 37072 ft | 547 kts | 71° |
| 2026-05-04 13:16 | 33.77022 | -92.56991 | 37044 ft | 549 kts | 71° |
| 2026-05-04 13:17 | 33.78497 | -92.47973 | 37033 ft | 551 kts | 71° |
| 2026-05-04 13:17 | 33.79967 | -92.38940 | 37036 ft | 551 kts | 71° |
| 2026-05-04 13:18 | 33.81431 | -92.29891 | 37038 ft | 552 kts | 71° |
| 2026-05-04 13:18 | 33.82892 | -92.20828 | 37038 ft | 552 kts | 72° |
| 2026-05-04 13:19 | 33.84309 | -92.11944 | 36842 ft | 536 kts | 72° |
| 2026-05-04 13:19 | 33.85006 | -92.07559 | 36481 ft | 530 kts | 72° |
| 2026-05-04 13:19 | 33.85697 | -92.03224 | 36078 ft | 525 kts | 72° |
| 2026-05-04 13:19 | 33.86346 | -91.99155 | 35687 ft | 521 kts | 72° |
| 2026-05-04 13:20 | 33.87025 | -91.94888 | 35243 ft | 517 kts | 72° |
| 2026-05-04 13:20 | 33.87635 | -91.91051 | 34864 ft | 514 kts | 73° |
| 2026-05-04 13:20 | 33.88242 | -91.87224 | 34476 ft | 512 kts | 73° |
| 2026-05-04 13:20 | 33.88905 | -91.83028 | 34012 ft | 510 kts | 73° |
| 2026-05-04 13:21 | 33.89563 | -91.78845 | 33520 ft | 508 kts | 74° |
| 2026-05-04 13:21 | 33.90190 | -91.74823 | 33043 ft | 505 kts | 75° |
| 2026-05-04 13:21 | 33.90843 | -91.70696 | 32590 ft | 500 kts | 73° |
| 2026-05-04 13:21 | 33.91521 | -91.66623 | 32185 ft | 495 kts | 75° |
| 2026-05-04 13:22 | 33.92135 | -91.62562 | 31757 ft | 492 kts | 76° |
| 2026-05-04 13:22 | 33.92894 | -91.58579 | 31290 ft | 482 kts | 64° |
| 2026-05-04 13:22 | 33.94307 | -91.55015 | 30859 ft | 465 kts | 50° |
| 2026-05-04 13:22 | 33.96356 | -91.52152 | 30470 ft | 443 kts | 39° |
| 2026-05-04 13:23 | 33.98465 | -91.49442 | 30055 ft | 442 kts | 44° |
| 2026-05-04 13:23 | 34.00396 | -91.46684 | 29577 ft | 437 kts | 44° |
| 2026-05-04 13:23 | 34.02379 | -91.43933 | 29118 ft | 433 kts | 43° |
| 2026-05-04 13:23 | 34.04404 | -91.41294 | 28709 ft | 428 kts | 41° |
| 2026-05-04 13:24 | 34.06378 | -91.38668 | 28308 ft | 426 kts | 43° |
| 2026-05-04 13:24 | 34.08326 | -91.35986 | 27894 ft | 423 kts | 44° |
| 2026-05-04 13:24 | 34.10237 | -91.33320 | 27482 ft | 420 kts | 44° |
| 2026-05-04 13:25 | 34.14042 | -91.28020 | 26676 ft | 415 kts | 44° |
| 2026-05-04 13:25 | 34.15929 | -91.25403 | 26281 ft | 412 kts | 44° |
| 2026-05-04 13:25 | 34.17805 | -91.22804 | 25889 ft | 410 kts | 44° |
| 2026-05-04 13:25 | 34.19676 | -91.20212 | 25498 ft | 407 kts | 44° |
| 2026-05-04 13:26 | 34.21530 | -91.17647 | 25130 ft | 405 kts | 45° |
| 2026-05-04 13:26 | 34.23384 | -91.15081 | 24729 ft | 404 kts | 45° |
| 2026-05-04 13:26 | 34.25223 | -91.12536 | 24339 ft | 402 kts | 45° |
| 2026-05-04 13:26 | 34.27062 | -91.09987 | 23945 ft | 401 kts | 45° |
| 2026-05-04 13:27 | 34.28894 | -91.07447 | 23539 ft | 400 kts | 45° |
| 2026-05-04 13:27 | 34.30712 | -91.04922 | 23086 ft | 398 kts | 45° |
| 2026-05-04 13:27 | 34.32529 | -91.02398 | 22667 ft | 396 kts | 45° |
| 2026-05-04 13:27 | 34.34289 | -90.99950 | 22276 ft | 393 kts | 45° |
| 2026-05-04 13:28 | 34.36003 | -90.97565 | 21901 ft | 391 kts | 46° |
| 2026-05-04 13:28 | 34.37781 | -90.95090 | 21504 ft | 389 kts | 46° |
| 2026-05-04 13:28 | 34.39539 | -90.92639 | 21127 ft | 387 kts | 46° |
| 2026-05-04 13:28 | 34.41300 | -90.90184 | 20752 ft | 385 kts | 46° |
| 2026-05-04 13:29 | 34.43047 | -90.87746 | 20368 ft | 382 kts | 46° |
| 2026-05-04 13:29 | 34.44785 | -90.85320 | 19973 ft | 379 kts | 46° |
| 2026-05-04 13:29 | 34.46509 | -90.82912 | 19574 ft | 376 kts | 46° |
| 2026-05-04 13:29 | 34.48214 | -90.80527 | 19217 ft | 374 kts | 46° |
| 2026-05-04 13:30 | 34.49914 | -90.78149 | 18830 ft | 371 kts | 47° |
| 2026-05-04 13:30 | 34.51552 | -90.75802 | 18446 ft | 369 kts | 48° |
| 2026-05-04 13:30 | 34.53183 | -90.73412 | 18037 ft | 366 kts | 48° |
| 2026-05-04 13:30 | 34.54792 | -90.71044 | 17625 ft | 363 kts | 49° |
| 2026-05-04 13:31 | 34.56397 | -90.68685 | 17233 ft | 360 kts | 49° |
| 2026-05-04 13:31 | 34.57987 | -90.66354 | 16850 ft | 356 kts | 49° |
| 2026-05-04 13:31 | 34.59561 | -90.64047 | 16481 ft | 353 kts | 49° |
| 2026-05-04 13:31 | 34.61119 | -90.61766 | 16117 ft | 349 kts | 49° |
| 2026-05-04 13:32 | 34.62643 | -90.59495 | 15802 ft | 345 kts | 50° |
| 2026-05-04 13:32 | 34.64106 | -90.57217 | 15536 ft | 339 kts | 51° |
| 2026-05-04 13:32 | 34.65539 | -90.54961 | 15245 ft | 336 kts | 51° |
| 2026-05-04 13:32 | 34.66962 | -90.52721 | 14978 ft | 335 kts | 51° |
| 2026-05-04 13:33 | 34.68372 | -90.50510 | 14721 ft | 335 kts | 51° |
| 2026-05-04 13:33 | 34.69797 | -90.48279 | 14453 ft | 335 kts | 51° |
| 2026-05-04 13:33 | 34.71229 | -90.46038 | 14190 ft | 335 kts | 51° |
| 2026-05-04 13:33 | 34.72662 | -90.43796 | 13906 ft | 335 kts | 51° |
| 2026-05-04 13:34 | 34.74091 | -90.41557 | 13615 ft | 335 kts | 51° |
| 2026-05-04 13:34 | 34.75520 | -90.39319 | 13302 ft | 335 kts | 51° |
| 2026-05-04 13:34 | 34.76948 | -90.37079 | 13011 ft | 334 kts | 51° |
| 2026-05-04 13:34 | 34.78359 | -90.34863 | 12730 ft | 329 kts | 52° |
| 2026-05-04 13:35 | 34.79744 | -90.32689 | 12455 ft | 323 kts | 52° |
| 2026-05-04 13:35 | 34.82472 | -90.28399 | 11907 ft | 318 kts | 52° |
| 2026-05-04 13:35 | 34.83817 | -90.26284 | 11585 ft | 315 kts | 52° |
| 2026-05-04 13:36 | 34.85132 | -90.24214 | 11287 ft | 311 kts | 52° |
| 2026-05-04 13:36 | 34.86452 | -90.22136 | 10982 ft | 309 kts | 52° |
| 2026-05-04 13:36 | 34.87767 | -90.20061 | 10681 ft | 310 kts | 53° |
| 2026-05-04 13:36 | 34.89084 | -90.17985 | 10379 ft | 310 kts | 53° |
| 2026-05-04 13:37 | 34.90393 | -90.15916 | 10053 ft | 306 kts | 53° |
| 2026-05-04 13:37 | 34.91686 | -90.13871 | 9739 ft | 302 kts | 53° |
| 2026-05-04 13:37 | 34.93120 | -90.12088 | 9387 ft | 292 kts | 31° |
| 2026-05-04 13:37 | 34.94328 | -90.11405 | 9211 ft | 287 kts | 15° |
| 2026-05-04 13:38 | 34.96891 | -90.11072 | 8999 ft | 268 kts | 358° |
| 2026-05-04 13:38 | 34.98703 | -90.11055 | 8971 ft | 256 kts | 358° |
| 2026-05-04 13:38 | 35.00511 | -90.11035 | 8604 ft | 269 kts | 357° |
| 2026-05-04 13:38 | 35.02402 | -90.11014 | 8175 ft | 272 kts | 358° |
| 2026-05-04 13:39 | 35.04265 | -90.10984 | 7939 ft | 264 kts | 358° |
| 2026-05-04 13:39 | 35.06075 | -90.10951 | 7611 ft | 256 kts | 358° |
| 2026-05-04 13:39 | 35.07818 | -90.10917 | 7302 ft | 247 kts | 358° |
| 2026-05-04 13:39 | 35.09521 | -90.10886 | 7060 ft | 245 kts | 357° |
| 2026-05-04 13:40 | 35.11243 | -90.10883 | 6838 ft | 250 kts | 356° |
| 2026-05-04 13:40 | 35.12992 | -90.10911 | 6584 ft | 252 kts | 355° |
| 2026-05-04 13:40 | 35.14723 | -90.10940 | 6321 ft | 247 kts | 355° |
| 2026-05-04 13:40 | 35.16398 | -90.10967 | 6045 ft | 241 kts | 355° |
| 2026-05-04 13:41 | 35.18087 | -90.10993 | 5822 ft | 239 kts | 355° |
| 2026-05-04 13:41 | 35.19752 | -90.11021 | 5580 ft | 240 kts | 354° |
| 2026-05-04 13:41 | 35.21422 | -90.11048 | 5339 ft | 240 kts | 354° |
| 2026-05-04 13:42 | 35.24751 | -90.11095 | 4881 ft | 240 kts | 353° |
| 2026-05-04 13:42 | 35.26419 | -90.11121 | 4610 ft | 234 kts | 353° |
| 2026-05-04 13:42 | 35.28028 | -90.11143 | 4375 ft | 229 kts | 353° |
| 2026-05-04 13:42 | 35.29629 | -90.11172 | 4154 ft | 230 kts | 353° |
| 2026-05-04 13:43 | 35.31218 | -90.11207 | 4054 ft | 227 kts | 350° |
| 2026-05-04 13:43 | 35.32776 | -90.11391 | 3983 ft | 227 kts | 346° |
| 2026-05-04 13:43 | 35.34336 | -90.11640 | 3995 ft | 229 kts | 345° |
| 2026-05-04 13:43 | 35.35926 | -90.11819 | 3960 ft | 234 kts | 2° |
| 2026-05-04 13:44 | 35.37412 | -90.10985 | 3986 ft | 243 kts | 41° |
| 2026-05-04 13:44 | 35.38356 | -90.09260 | 3991 ft | 249 kts | 67° |
| 2026-05-04 13:44 | 35.38937 | -90.07226 | 4014 ft | 254 kts | 73° |
| 2026-05-04 13:44 | 35.39450 | -90.05130 | 4031 ft | 254 kts | 74° |
| 2026-05-04 13:45 | 35.39623 | -90.03057 | 3967 ft | 245 kts | 103° |
| 2026-05-04 13:45 | 35.38973 | -90.01217 | 3986 ft | 231 kts | 135° |
| 2026-05-04 13:45 | 35.37739 | -90.00079 | 3975 ft | 220 kts | 168° |
| 2026-05-04 13:45 | 35.36330 | -89.99729 | 4014 ft | 220 kts | 178° |
| 2026-05-04 13:46 | 35.34810 | -89.99499 | 4013 ft | 219 kts | 181° |
| 2026-05-04 13:46 | 35.33298 | -89.99382 | 3998 ft | 215 kts | 184° |
| 2026-05-04 13:46 | 35.31824 | -89.99327 | 3992 ft | 210 kts | 185° |
| 2026-05-04 13:46 | 35.30350 | -89.99292 | 4006 ft | 215 kts | 185° |
| 2026-05-04 13:47 | 35.28840 | -89.99261 | 4019 ft | 218 kts | 185° |
| 2026-05-04 13:47 | 35.27356 | -89.99228 | 3998 ft | 214 kts | 185° |
| 2026-05-04 13:47 | 35.25854 | -89.99196 | 4023 ft | 216 kts | 185° |
| 2026-05-04 13:47 | 35.24350 | -89.99164 | 3744 ft | 215 kts | 185° |
| 2026-05-04 13:48 | 35.22860 | -89.99130 | 3530 ft | 214 kts | 185° |
| 2026-05-04 13:48 | 35.21380 | -89.99098 | 3354 ft | 206 kts | 185° |
| 2026-05-04 13:48 | 35.20031 | -89.99065 | 3127 ft | 185 kts | 186° |
| 2026-05-04 13:48 | 35.18815 | -89.99038 | 2946 ft | 173 kts | 187° |
| 2026-05-04 13:49 | 35.17566 | -89.99012 | 2717 ft | 168 kts | 188° |
| 2026-05-04 13:49 | 35.16481 | -89.98991 | 2541 ft | 165 kts | 188° |
| 2026-05-04 13:49 | 35.15340 | -89.98969 | 2338 ft | 164 kts | 188° |
| 2026-05-04 13:49 | 35.14203 | -89.98945 | 2105 ft | 162 kts | 189° |
| 2026-05-04 13:50 | 35.13137 | -89.98916 | 1889 ft | 144 kts | 189° |
| 2026-05-04 13:50 | 35.12179 | -89.98896 | 1707 ft | 134 kts | 189° |
| 2026-05-04 13:50 | 35.11252 | -89.98879 | 1546 ft | 131 kts | 188° |
| 2026-05-04 13:50 | 35.10333 | -89.98871 | 1344 ft | 133 kts | 186° |
| 2026-05-04 13:51 | 35.09394 | -89.98788 | 1190 ft | 137 kts | 182° |
| 2026-05-04 13:51 | 35.08449 | -89.98792 | 1042 ft | 134 kts | 188° |
| 2026-05-04 13:51 | 35.07522 | -89.98827 | 799 ft | 134 kts | 181° |
| 2026-05-04 13:51 | 35.06591 | -89.98756 | 627 ft | 134 kts | 181° |
| 2026-05-04 13:52 | 35.04707 | -89.98732 | 365 ft | 135 kts | 180° |
| 2026-05-04 13:52 | 35.03838 | -89.98718 | 332 ft | 104 kts | 179° |
| 2026-05-04 13:52 | 35.03300 | -89.98710 | 335 ft | 56 kts | 179° |
| 2026-05-04 13:53 | 35.03027 | -89.98710 | 332 ft | 29 kts | 180° |
| 2026-05-04 13:53 | 35.02831 | -89.98685 | 331 ft | 29 kts | 160° |
| 2026-05-04 13:53 | 35.02669 | -89.98565 | 331 ft | 18 kts | 123° |
| 2026-05-04 13:54 | 35.02733 | -89.98462 | 332 ft | 0 kts | 359° |
| 2026-05-04 13:54 | 35.02734 | -89.98462 | 332 ft | 0 kts | 359° |
| 2026-05-04 13:55 | 35.02739 | -89.98462 | 333 ft | 1 kts | 0° |
| 2026-05-04 13:55 | 35.02769 | -89.98461 | 333 ft | 3 kts | 356° |
| 2026-05-04 13:55 | 35.02795 | -89.98463 | 332 ft | 4 kts | 358° |
| 2026-05-04 13:56 | 35.02827 | -89.98464 | 332 ft | 5 kts | 359° |
| 2026-05-04 13:56 | 35.02865 | -89.98465 | 332 ft | 6 kts | 359° |
| 2026-05-04 13:56 | 35.02958 | -89.98467 | 330 ft | 7 kts | 359° |
| 2026-05-04 13:57 | 35.03011 | -89.98469 | 332 ft | 8 kts | 359° |
| 2026-05-04 13:57 | 35.03069 | -89.98470 | 332 ft | 9 kts | 359° |
| 2026-05-04 13:58 | 35.03293 | -89.98474 | 330 ft | 12 kts | 359° |
| 2026-05-04 13:58 | 35.03466 | -89.98478 | 333 ft | 13 kts | 359° |
| 2026-05-04 13:58 | 35.03557 | -89.98480 | 331 ft | 13 kts | 359° |
| 2026-05-04 13:59 | 35.03647 | -89.98482 | 333 ft | 13 kts | 359° |
| 2026-05-04 13:59 | 35.03738 | -89.98486 | 333 ft | 13 kts | 358° |
| 2026-05-04 13:59 | 35.03789 | -89.98352 | 332 ft | 10 kts | 92° |
| 2026-05-04 14:00 | 35.03790 | -89.98263 | 334 ft | 12 kts | 89° |
| 2026-05-04 14:00 | 35.03796 | -89.97896 | 331 ft | 24 kts | 89° |
| 2026-05-04 14:00 | 35.03798 | -89.97692 | 329 ft | 24 kts | 89° |
| 2026-05-04 14:01 | 35.03801 | -89.97478 | 331 ft | 26 kts | 86° |
| 2026-05-04 14:01 | 35.03806 | -89.97261 | 331 ft | 26 kts | 89° |
| 2026-05-04 14:01 | 35.03777 | -89.96884 | 331 ft | 19 kts | 134° |
| 2026-05-04 14:02 | 35.03651 | -89.96852 | 331 ft | 19 kts | 176° |
| 2026-05-04 14:02 | 35.03519 | -89.96853 | 332 ft | 19 kts | 182° |
| 2026-05-04 14:02 | 35.03414 | -89.96843 | 331 ft | 14 kts | 149° |
| 2026-05-04 14:02 | 35.03400 | -89.96737 | 333 ft | 13 kts | 86° |
| 2026-05-04 14:03 | 35.03372 | -89.96673 | 334 ft | 9 kts | 182° |
| 2026-05-04 14:03 | 35.03325 | -89.96675 | 331 ft | 3 kts | 179° |
| 2026-05-04 14:03 | 35.03322 | -89.96675 | 332 ft | 0 kts | 179° |